Main page
METAR-TAF:

METAR-TAF

Airports :

MoD Boscombe Down

Boscombe Down, England

latitude: 51-10N, longitude: 001-45W, elevation: 124 m

Current weather observation

The report was made 38 minutes ago, at 13:50 UTC
Wind 10 kt from the South
Temperature 14°C
Humidity 67%
Pressure 1020 hPa
Visibility 10 km or more
Few clouds at a height of 2800 ft
Scattered clouds at a height of 25000 ft

METAR: EGDM 141350Z 18010KT 9999 FEW028 SCT250 14/08 Q1020 BLU NOSIG

Time: 14:28 (14:28 UTC)

Forecast

The report was made 3 hours and 30 minutes ago, at 10:58 UTC
Forecast valid from 14 at 12 UTC to 14 at 19 UTC
Wind 14 kt from the South
Visibility 10 km or more
Few clouds at a height of 2200 ft
Probability 30% :
Temporary
from 14 at 12 UTC to 14 at 16 UTC
Scattered clouds at a height of 2000 ft
Probability 40%
from 14 at 16 UTC to 14 at 19 UTC
Broken clouds at a height of 1000 ft

TAF: EGDM 141058Z 1412/1419 19014KT 9999 FEW022 PROB30 TEMPO 1412/1416 SCT020 PROB40 1416/1419 BKN010

Weather observations and forecasts of more than 4000 airports (METAR and TAF reports).

The available stations are represented by yellow and red dots on the map.

Hover mouse over dot to see the name of the station.

Then click to see weather observations and forecasts.

To change the map : click on the green buttons with a black cross to zoom in, on the green button with a dash to zoom out, or on the green arrows for adjacent maps.


METAR-TAF: